Terminal Aerodrome Forecast
Issued by NWS

Home | Current Version | Previous Version | Text Only | Print | Product List | Glossary On
Versions: 1 2 3 4 5 6 7 8 9 10 11 12 13 14 15 16 17 18 19 20 21 22 23
635
FTUS43 KLSX 221933 AAB
TAFSUS
TAF AMD
KSUS 221933Z 2220/2318 36010G18KT 5SM BR VCSH OVC012
      TEMPO 2220/2222 3SM BR OVC008
     FM230500 33011G17KT P6SM BKN015=

USA.gov is the U.S. government's official web portal to all federal, state and local government web resources and services.